createdAt,value
2022-07-31T00:00:26.752Z,101672.88
2022-07-31T00:02:54.064Z,101673.06
2022-07-31T00:05:21.267Z,101676.75
2022-07-31T00:07:48.376Z,101667.00
2022-07-31T00:10:15.453Z,101668.19
2022-07-31T00:12:42.999Z,101669.34
2022-07-31T00:15:10.634Z,101672.06
2022-07-31T00:17:39.356Z,101668.44
2022-07-31T00:20:07.377Z,101666.03
2022-07-31T00:22:35.828Z,101662.75
2022-07-31T00:25:03.177Z,101659.16
2022-07-31T00:27:30.216Z,101655.13
2022-07-31T00:29:57.439Z,101647.16
2022-07-31T00:32:24.643Z,101654.16
2022-07-31T00:34:52.214Z,101638.81
2022-07-31T00:37:19.274Z,101644.56
2022-07-31T00:39:46.388Z,101644.13
2022-07-31T00:42:25.842Z,101639.81
2022-07-31T00:44:53.263Z,101630.44
2022-07-31T00:47:22.295Z,101633.94
2022-07-31T00:49:53.221Z,101631.81
2022-07-31T00:52:20.450Z,101629.25
2022-07-31T00:54:47.521Z,101630.38
2022-07-31T00:57:15.366Z,101637.72
2022-07-31T00:59:43.809Z,101640.94
2022-07-31T01:02:11.053Z,101625.56
2022-07-31T01:04:38.132Z,101631.84
2022-07-31T01:07:09.167Z,101638.50
2022-07-31T01:09:36.413Z,101633.94
2022-07-31T01:12:09.906Z,101634.09
2022-07-31T01:14:41.702Z,101631.94
2022-07-31T01:17:10.468Z,101634.31
2022-07-31T01:19:43.351Z,101625.31
2022-07-31T01:22:38.110Z,101625.75
2022-07-31T01:25:33.161Z,101621.06
2022-07-31T01:28:43.600Z,101616.66
2022-07-31T01:31:31.674Z,101610.31
2022-07-31T01:34:23.168Z,101614.66
2022-07-31T01:37:00.269Z,101615.31
2022-07-31T01:39:34.079Z,101621.94
2022-07-31T01:42:04.971Z,101617.94
2022-07-31T01:44:38.656Z,101625.03
2022-07-31T01:47:08.113Z,101621.75
2022-07-31T01:49:36.173Z,101623.56
2022-07-31T01:52:05.705Z,101614.44
2022-07-31T01:54:34.964Z,101621.03
2022-07-31T01:57:04.189Z,101621.31
2022-07-31T01:59:33.783Z,101616.75
2022-07-31T02:02:03.595Z,101621.31
2022-07-31T02:04:34.195Z,101609.91
2022-07-31T02:07:04.217Z,101607.19
2022-07-31T02:09:33.523Z,101602.41
2022-07-31T02:12:01.573Z,101604.44
2022-07-31T02:14:31.176Z,101592.56
2022-07-31T02:16:59.505Z,101592.47
2022-07-31T02:19:28.378Z,101609.09
2022-07-31T02:21:59.736Z,101599.19
2022-07-31T02:24:26.974Z,101596.69
2022-07-31T02:26:54.990Z,101596.56
2022-07-31T02:29:24.209Z,101603.06
2022-07-31T02:32:03.222Z,101590.53
2022-07-31T02:34:32.100Z,101592.38
2022-07-31T02:37:01.645Z,101587.59
2022-07-31T02:39:31.192Z,101574.25
2022-07-31T02:42:01.719Z,101579.19
2022-07-31T02:44:31.961Z,101581.44
2022-07-31T02:47:02.711Z,101591.00
2022-07-31T02:49:32.166Z,101599.47
2022-07-31T02:51:59.897Z,101588.59
2022-07-31T02:54:28.357Z,101595.91
2022-07-31T02:56:56.440Z,101582.03
2022-07-31T02:59:23.929Z,101592.38
2022-07-31T03:01:51.016Z,101587.59
2022-07-31T03:04:18.406Z,101589.53
2022-07-31T03:06:45.720Z,101589.41
2022-07-31T03:09:12.931Z,101576.41
2022-07-31T03:11:40.678Z,101578.94
2022-07-31T03:14:08.721Z,101583.47
2022-07-31T03:16:36.583Z,101580.75
2022-07-31T03:19:04.301Z,101571.44
2022-07-31T03:21:32.541Z,101574.97
2022-07-31T03:23:59.876Z,101565.72
2022-07-31T03:26:28.059Z,101558.34
2022-07-31T03:28:55.115Z,101560.47
2022-07-31T03:31:22.333Z,101558.44
2022-07-31T03:33:49.427Z,101558.78
2022-07-31T03:36:16.991Z,101565.63
2022-07-31T03:38:47.633Z,101555.16
2022-07-31T03:41:17.715Z,101557.53
2022-07-31T03:43:47.932Z,101556.94
2022-07-31T03:46:18.689Z,101552.53
2022-07-31T03:48:46.682Z,101546.81
2022-07-31T03:51:14.386Z,101554.22
2022-07-31T03:53:42.479Z,101558.34
2022-07-31T03:56:11.080Z,101561.16
2022-07-31T03:58:38.591Z,101558.88
2022-07-31T04:01:09.777Z,101555.50
2022-07-31T04:03:39.515Z,101548.41
2022-07-31T04:06:06.669Z,101546.81
2022-07-31T04:08:34.616Z,101555.50
2022-07-31T04:11:01.643Z,101558.44
2022-07-31T04:13:28.722Z,101554.56
2022-07-31T04:15:55.842Z,101552.28
2022-07-31T04:18:22.968Z,101556.41
2022-07-31T04:20:50.107Z,101560.94
2022-07-31T04:23:17.257Z,101559.34
2022-07-31T04:25:44.296Z,101559.13
2022-07-31T04:28:11.514Z,101562.75
2022-07-31T04:30:39.228Z,101564.94
2022-07-31T04:33:06.339Z,101565.63
2022-07-31T04:35:33.483Z,101559.91
2022-07-31T04:38:01.000Z,101560.47
2022-07-31T04:40:28.108Z,101558.78
2022-07-31T04:42:55.164Z,101565.38
2022-07-31T04:45:22.685Z,101558.88
2022-07-31T04:47:50.373Z,101556.69
2022-07-31T04:50:17.558Z,101563.56
2022-07-31T04:52:44.659Z,101561.16
2022-07-31T04:55:11.638Z,101557.50
2022-07-31T04:57:38.722Z,101561.19
2022-07-31T05:00:07.025Z,101566.28
2022-07-31T05:02:34.105Z,101572.31
2022-07-31T05:05:01.322Z,101576.06
2022-07-31T05:07:28.981Z,101563.44
2022-07-31T05:09:57.214Z,101573.09
2022-07-31T05:12:24.308Z,101572.63
2022-07-31T05:14:51.644Z,101570.03
2022-07-31T05:17:18.826Z,101575.28
2022-07-31T05:19:45.945Z,101572.97
2022-07-31T05:22:13.282Z,101576.06
2022-07-31T05:24:43.081Z,101580.72
2022-07-31T05:27:10.594Z,101583.22
2022-07-31T05:29:37.641Z,101593.69
2022-07-31T05:32:05.195Z,101585.91
2022-07-31T05:34:32.321Z,101592.44
2022-07-31T05:37:01.253Z,101595.63
2022-07-31T05:39:29.332Z,101602.44
2022-07-31T05:41:57.177Z,101596.16
2022-07-31T05:44:24.957Z,101596.22
2022-07-31T05:49:19.870Z,101602.00
2022-07-31T05:51:47.255Z,101600.38
2022-07-31T05:54:14.443Z,101603.97
2022-07-31T05:56:41.518Z,101607.25
2022-07-31T05:59:10.056Z,101599.91
2022-07-31T06:01:38.697Z,101602.88
2022-07-31T06:04:05.795Z,101593.72
2022-07-31T06:06:32.830Z,101602.56
2022-07-31T06:09:04.507Z,101605.50
2022-07-31T06:11:32.344Z,101599.47
2022-07-31T06:13:59.474Z,101598.59
2022-07-31T06:16:26.851Z,101603.69
2022-07-31T06:18:54.197Z,101600.81
2022-07-31T06:23:47.143Z,101607.19
2022-07-31T06:26:14.188Z,101601.00
2022-07-31T06:28:49.111Z,101612.84
2022-07-31T06:31:21.128Z,101605.72
2022-07-31T06:33:51.045Z,101615.31
2022-07-31T06:36:18.901Z,101618.16
2022-07-31T06:38:46.672Z,101614.44
2022-07-31T06:41:34.045Z,101616.13
2022-07-31T06:44:01.183Z,101621.16
2022-07-31T06:46:28.258Z,101625.59
2022-07-31T06:48:55.632Z,101624.53
2022-07-31T06:51:31.608Z,101630.91
2022-07-31T06:54:00.552Z,101624.34
2022-07-31T06:56:28.549Z,101620.28
2022-07-31T06:58:56.026Z,101618.09
2022-07-31T07:01:23.385Z,101613.84
2022-07-31T07:03:50.512Z,101622.56
2022-07-31T07:06:17.788Z,101612.38
2022-07-31T07:08:44.998Z,101616.88
2022-07-31T07:11:12.523Z,101602.56
2022-07-31T07:13:44.969Z,101608.63
2022-07-31T07:16:14.965Z,101603.97
2022-07-31T07:18:43.347Z,101614.13
2022-07-31T07:21:11.241Z,101608.25
2022-07-31T07:23:39.021Z,101611.00
2022-07-31T07:26:08.339Z,101606.59
2022-07-31T07:28:35.901Z,101606.06
2022-07-31T07:31:06.384Z,101606.59
2022-07-31T07:33:39.660Z,101604.94
2022-07-31T07:36:07.587Z,101602.50
2022-07-31T07:38:50.133Z,101602.13
2022-07-31T07:41:18.459Z,101600.38
2022-07-31T07:43:45.830Z,101597.34
2022-07-31T07:46:19.306Z,101591.94
2022-07-31T07:48:46.378Z,101593.16
2022-07-31T07:51:16.181Z,101592.66
2022-07-31T07:53:43.202Z,101597.84
2022-07-31T07:56:10.306Z,101601.69
2022-07-31T07:58:37.468Z,101597.13
2022-07-31T08:01:08.883Z,101589.69
2022-07-31T08:03:49.800Z,101592.13
2022-07-31T08:06:23.436Z,101593.00
2022-07-31T08:08:50.531Z,101589.50
2022-07-31T08:11:18.821Z,101582.72
2022-07-31T08:13:50.574Z,101589.63
2022-07-31T08:16:20.212Z,101594.34
2022-07-31T08:18:48.708Z,101592.75
2022-07-31T08:21:16.074Z,101588.19
2022-07-31T08:23:43.398Z,101583.75
2022-07-31T08:26:10.592Z,101585.00
2022-07-31T08:28:39.119Z,101586.00
2022-07-31T08:31:06.321Z,101593.34
2022-07-31T08:33:33.677Z,101593.34
2022-07-31T08:36:01.951Z,101594.22
2022-07-31T08:38:29.265Z,101598.53
2022-07-31T08:40:56.445Z,101605.47
2022-07-31T08:44:02.030Z,101604.88
2022-07-31T08:46:13.143Z,101610.69
2022-07-31T08:48:42.384Z,101610.50
2022-07-31T08:51:13.865Z,101613.56
2022-07-31T08:53:43.452Z,101608.41
2022-07-31T08:56:11.701Z,101610.69
2022-07-31T08:58:40.080Z,101608.03
2022-07-31T09:01:16.179Z,101608.19
2022-07-31T09:03:44.621Z,101606.38
2022-07-31T09:06:12.164Z,101602.44
2022-07-31T09:08:39.597Z,101602.81
2022-07-31T09:11:12.349Z,101604.50
2022-07-31T09:13:40.974Z,101599.78
2022-07-31T09:16:08.876Z,101604.63
2022-07-31T09:18:36.049Z,101601.69
2022-07-31T09:21:06.395Z,101609.00
2022-07-31T09:23:33.748Z,101601.38
2022-07-31T09:26:06.050Z,101601.38
2022-07-31T09:28:37.423Z,101591.19
2022-07-31T09:31:09.596Z,101589.22
2022-07-31T09:33:41.271Z,101595.44
2022-07-31T09:36:10.972Z,101589.66
2022-07-31T09:38:42.753Z,101585.69
2022-07-31T09:41:56.948Z,101584.97
2022-07-31T09:44:09.987Z,101578.28
2022-07-31T09:46:48.426Z,101567.28
2022-07-31T09:49:15.596Z,101576.28
2022-07-31T09:51:45.991Z,101571.53
2022-07-31T09:54:24.501Z,101574.66
2022-07-31T09:56:52.516Z,101567.56
2022-07-31T09:59:20.100Z,101563.78
2022-07-31T10:01:49.231Z,101563.03
2022-07-31T10:04:21.521Z,101566.25
2022-07-31T10:06:51.881Z,101565.94
2022-07-31T10:09:21.873Z,101563.13
2022-07-31T10:11:52.450Z,101559.50
2022-07-31T10:14:24.184Z,101562.69
2022-07-31T10:16:54.512Z,101557.28
2022-07-31T10:19:22.986Z,101550.25
2022-07-31T10:21:56.587Z,101534.50
2022-07-31T10:24:28.263Z,101542.00
2022-07-31T10:27:01.556Z,101543.19
2022-07-31T10:29:41.371Z,101534.09
2022-07-31T10:32:09.404Z,101539.22
2022-07-31T10:34:38.159Z,101527.28
2022-07-31T10:37:36.577Z,101534.75
2022-07-31T10:40:25.798Z,101527.59
2022-07-31T10:43:03.282Z,101527.44
2022-07-31T10:45:31.894Z,101515.03
2022-07-31T10:48:01.248Z,101516.16
2022-07-31T10:50:32.148Z,101506.41
2022-07-31T10:53:10.045Z,101516.72
2022-07-31T10:55:37.455Z,101513.03
2022-07-31T10:58:17.177Z,101501.22
2022-07-31T11:00:45.366Z,101497.72
2022-07-31T11:03:17.868Z,101493.97
2022-07-31T11:06:01.586Z,101501.91
2022-07-31T11:11:33.146Z,101493.38
2022-07-31T11:14:00.515Z,101486.84
2022-07-31T11:16:29.168Z,101489.97
2022-07-31T11:19:02.565Z,101484.09
2022-07-31T11:21:41.856Z,101483.31
2022-07-31T11:24:16.435Z,101482.81
2022-07-31T11:26:53.585Z,101476.91
2022-07-31T11:29:58.625Z,101473.91
2022-07-31T11:32:25.316Z,101466.22
2022-07-31T11:34:55.974Z,101455.81
2022-07-31T11:37:37.530Z,101455.03
2022-07-31T11:40:16.195Z,101457.56
2022-07-31T11:42:46.153Z,101457.47
2022-07-31T11:45:17.728Z,101450.00
2022-07-31T11:48:11.996Z,101451.91
2022-07-31T11:50:42.010Z,101442.22
2022-07-31T11:53:09.413Z,101437.75
2022-07-31T11:56:08.674Z,101433.28
2022-07-31T11:58:36.347Z,101441.16
2022-07-31T12:01:05.922Z,101428.03
2022-07-31T12:03:36.488Z,101433.19
2022-07-31T12:06:06.882Z,101428.56
2022-07-31T12:08:35.455Z,101427.25
2022-07-31T12:11:08.180Z,101422.09
2022-07-31T12:13:35.339Z,101422.44
2022-07-31T12:16:10.309Z,101425.19
2022-07-31T12:18:59.380Z,101407.16
2022-07-31T12:21:35.101Z,101397.75
2022-07-31T12:24:02.914Z,101394.38
2022-07-31T12:26:33.524Z,101371.78
2022-07-31T12:29:02.672Z,101365.59
2022-07-31T12:31:42.823Z,101363.47
2022-07-31T12:34:10.345Z,101357.66
2022-07-31T12:36:37.439Z,101362.06
2022-07-31T12:39:05.495Z,101361.59
2022-07-31T12:41:43.220Z,101353.38
2022-07-31T12:44:13.447Z,101359.28
2022-07-31T12:46:42.250Z,101362.38
2022-07-31T12:49:09.537Z,101350.13
2022-07-31T12:51:45.492Z,101335.22
2022-07-31T12:54:17.268Z,101343.59
2022-07-31T12:56:46.381Z,101344.41
2022-07-31T12:59:13.727Z,101338.47
2022-07-31T13:01:41.004Z,101331.03
2022-07-31T13:04:18.917Z,101338.47
2022-07-31T13:06:49.014Z,101327.88
2022-07-31T13:09:16.676Z,101315.25
2022-07-31T13:11:46.578Z,101312.78
2022-07-31T13:14:20.539Z,101310.03
2022-07-31T13:16:50.777Z,101307.25
2022-07-31T13:19:18.486Z,101309.78
2022-07-31T13:21:49.183Z,101305.88
2022-07-31T13:24:19.099Z,101296.00
2022-07-31T13:26:50.014Z,101298.72
2022-07-31T13:29:18.232Z,101287.78
2022-07-31T13:31:45.596Z,101293.47
2022-07-31T13:34:13.120Z,101289.97
2022-07-31T13:36:40.547Z,101283.44
2022-07-31T13:39:08.887Z,101283.03
2022-07-31T13:41:36.593Z,101287.09
2022-07-31T13:44:06.741Z,101283.41
2022-07-31T13:46:34.519Z,101286.19
2022-07-31T13:49:02.666Z,101282.88
2022-07-31T13:51:30.213Z,101276.59
2022-07-31T13:53:57.669Z,101286.88
2022-07-31T13:56:38.615Z,101274.84
2022-07-31T13:59:13.968Z,101276.56
2022-07-31T14:02:03.881Z,101275.56
2022-07-31T14:04:32.451Z,101272.66
2022-07-31T14:07:03.544Z,101273.69
2022-07-31T14:09:34.470Z,101265.22
2022-07-31T14:12:04.538Z,101264.69
2022-07-31T14:14:32.691Z,101265.28
2022-07-31T14:16:59.803Z,101264.47
2022-07-31T14:19:27.050Z,101263.91
2022-07-31T14:21:56.793Z,101259.72
2022-07-31T14:24:26.280Z,101270.16
2022-07-31T14:26:53.474Z,101265.88
2022-07-31T14:29:20.990Z,101262.09
2022-07-31T14:31:48.200Z,101263.13
2022-07-31T14:34:15.345Z,101265.31
2022-07-31T14:36:42.559Z,101261.50
2022-07-31T14:39:09.585Z,101254.31
2022-07-31T14:41:36.724Z,101264.75
2022-07-31T14:44:03.985Z,101252.88
2022-07-31T14:46:31.239Z,101265.59
2022-07-31T14:48:59.961Z,101266.88
2022-07-31T14:51:27.295Z,101255.13
2022-07-31T14:53:54.508Z,101263.75
2022-07-31T14:56:44.994Z,101263.78
2022-07-31T14:59:09.205Z,101254.75
2022-07-31T15:01:36.339Z,101259.13
2022-07-31T15:04:03.932Z,101257.97
2022-07-31T15:06:41.558Z,101262.22
2022-07-31T15:09:19.524Z,101265.06
2022-07-31T15:12:00.603Z,101266.91
2022-07-31T15:14:32.170Z,101255.41
2022-07-31T15:16:59.339Z,101248.63
2022-07-31T15:19:26.677Z,101256.31
2022-07-31T15:22:15.779Z,101263.72
2022-07-31T15:24:48.304Z,101268.28
2022-07-31T15:27:22.049Z,101261.25
2022-07-31T15:30:04.145Z,101262.19
2022-07-31T15:32:38.965Z,101262.72
2022-07-31T15:35:08.577Z,101266.88
2022-07-31T15:37:38.090Z,101275.63
2022-07-31T15:40:07.791Z,101281.06
2022-07-31T15:42:40.727Z,101289.59
2022-07-31T15:45:18.240Z,101291.41
2022-07-31T15:47:46.790Z,101296.56
2022-07-31T15:50:16.646Z,101301.53
2022-07-31T15:52:43.759Z,101307.91
2022-07-31T15:55:11.854Z,101299.53
2022-07-31T15:57:39.305Z,101299.50
2022-07-31T16:00:12.303Z,101295.66
2022-07-31T16:02:41.452Z,101285.59
2022-07-31T16:05:11.934Z,101285.34
2022-07-31T16:08:28.798Z,101251.91
2022-07-31T16:10:43.847Z,101249.72
2022-07-31T16:13:11.054Z,101245.19
2022-07-31T16:15:38.210Z,101277.72
2022-07-31T16:18:05.854Z,101265.69
2022-07-31T16:20:33.201Z,101259.16
2022-07-31T16:23:01.684Z,101229.72
2022-07-31T16:25:32.166Z,101227.66
2022-07-31T16:28:04.398Z,101199.19
2022-07-31T16:30:32.200Z,101183.09
2022-07-31T16:32:59.495Z,101158.00
2022-07-31T16:35:26.846Z,101159.09
2022-07-31T16:37:54.916Z,101144.81
2022-07-31T16:40:29.297Z,101154.38
2022-07-31T16:43:01.647Z,101147.47
2022-07-31T16:45:30.017Z,101125.94
2022-07-31T16:47:57.661Z,101114.97
2022-07-31T16:50:25.246Z,101092.91
2022-07-31T16:52:54.891Z,101077.22
2022-07-31T16:55:55.369Z,101079.31
2022-07-31T16:58:15.103Z,101082.94
2022-07-31T17:00:42.372Z,101056.78
2022-07-31T17:04:00.894Z,101060.91
2022-07-31T17:05:56.843Z,101061.38
2022-07-31T17:08:24.188Z,101074.72
2022-07-31T17:10:54.553Z,101056.78
2022-07-31T17:13:22.871Z,101068.56
2022-07-31T17:15:50.376Z,101081.47
2022-07-31T17:18:17.570Z,101078.31
2022-07-31T17:20:47.878Z,101085.25
2022-07-31T17:23:15.684Z,101106.28
2022-07-31T17:25:43.047Z,101105.59
2022-07-31T17:28:15.091Z,101074.22
2022-07-31T17:30:45.184Z,101064.28
2022-07-31T17:33:12.563Z,101032.31
2022-07-31T17:35:40.292Z,101022.50
2022-07-31T17:38:07.526Z,101008.41
2022-07-31T17:40:43.846Z,101004.50
2022-07-31T17:43:11.447Z,100985.88
2022-07-31T17:46:05.258Z,100944.97
2022-07-31T17:48:28.520Z,100923.91
2022-07-31T17:50:55.607Z,100889.50
2022-07-31T17:53:22.697Z,100906.41
2022-07-31T17:55:58.378Z,100902.47
2022-07-31T17:58:25.456Z,100893.78
2022-07-31T18:00:53.173Z,100944.56
2022-07-31T18:03:20.695Z,100921.38
2022-07-31T18:05:47.928Z,100894.81
2022-07-31T18:08:15.151Z,100894.47
2022-07-31T18:10:54.064Z,100897.56
2022-07-31T18:13:21.788Z,100919.19
2022-07-31T18:15:48.935Z,100921.50
2022-07-31T18:18:16.401Z,100898.09
2022-07-31T18:20:45.597Z,100885.13
2022-07-31T18:23:14.468Z,100900.69
2022-07-31T18:25:42.183Z,100885.13
2022-07-31T18:28:09.618Z,100854.28
2022-07-31T18:30:41.496Z,100847.34
2022-07-31T18:33:11.027Z,100838.31
2022-07-31T18:35:38.084Z,100816.91
2022-07-31T18:38:05.211Z,100832.97
2022-07-31T18:40:33.160Z,100845.34
2022-07-31T18:43:01.070Z,100855.88
2022-07-31T18:45:28.231Z,100840.25
2022-07-31T18:47:55.517Z,100839.47
2022-07-31T18:51:00.415Z,100846.06
2022-07-31T18:53:11.104Z,100839.28
2022-07-31T18:55:38.893Z,100854.78
2022-07-31T18:58:07.473Z,100839.16
2022-07-31T19:00:36.131Z,100826.94
2022-07-31T19:03:04.447Z,100853.69
2022-07-31T19:05:32.391Z,100831.06
2022-07-31T20:10:39.552Z,100490.88
2022-07-31T20:13:07.321Z,100514.31
2022-07-31T20:15:50.968Z,100536.13
2022-07-31T20:18:28.312Z,100556.88
2022-07-31T20:21:07.316Z,100580.09
2022-07-31T20:23:38.834Z,100598.75
2022-07-31T20:26:08.218Z,100609.56
2022-07-31T20:28:36.058Z,100610.41
2022-07-31T20:31:05.638Z,100630.81
2022-07-31T20:33:33.403Z,100630.38
2022-07-31T20:36:07.369Z,100655.22
2022-07-31T20:38:35.101Z,100639.13
2022-07-31T20:41:02.299Z,100644.38
2022-07-31T20:43:30.370Z,100625.72
2022-07-31T20:45:58.961Z,100671.50
2022-07-31T20:48:33.124Z,100682.97
2022-07-31T20:51:05.044Z,100662.91
2022-07-31T20:53:33.175Z,100659.88
2022-07-31T20:56:00.620Z,100648.09
2022-07-31T20:58:28.527Z,100626.91
2022-07-31T21:00:55.970Z,100618.16
2022-07-31T21:03:23.229Z,100594.53
2022-07-31T21:05:50.592Z,100602.09
2022-07-31T21:08:18.358Z,100585.31
2022-07-31T21:10:45.916Z,100568.50
2022-07-31T21:13:13.316Z,100566.94
2022-07-31T21:15:44.864Z,100543.88
2022-07-31T21:18:14.355Z,100542.78
2022-07-31T21:20:51.127Z,100558.31
2022-07-31T21:23:24.657Z,100543.00
2022-07-31T21:25:57.813Z,100537.53
2022-07-31T21:28:39.848Z,100529.16
2022-07-31T21:31:09.058Z,100527.22
2022-07-31T21:33:39.745Z,100537.00
2022-07-31T21:36:07.362Z,100531.22
2022-07-31T21:38:36.034Z,100544.03
2022-07-31T21:41:05.825Z,100550.59
2022-07-31T21:43:47.263Z,100551.41
2022-07-31T21:46:23.185Z,100554.41
2022-07-31T21:48:51.728Z,100544.81
2022-07-31T21:51:19.055Z,100543.31
2022-07-31T21:53:46.333Z,100550.81
2022-07-31T21:56:16.568Z,100553.97
2022-07-31T21:58:46.890Z,100556.19
2022-07-31T22:01:15.295Z,100563.31
2022-07-31T22:03:42.939Z,100563.53
2022-07-31T22:06:29.020Z,100564.72
2022-07-31T22:08:56.269Z,100567.81
2022-07-31T22:11:23.465Z,100584.06
2022-07-31T22:13:50.592Z,100566.19
2022-07-31T22:16:18.032Z,100565.44
2022-07-31T22:18:45.667Z,100572.03
2022-07-31T22:21:13.500Z,100570.81
2022-07-31T22:23:41.967Z,100580.94
2022-07-31T22:26:10.280Z,100574.28
2022-07-31T22:28:37.859Z,100571.53
2022-07-31T22:31:10.725Z,100567.56
2022-07-31T22:33:38.353Z,100572.25
2022-07-31T22:36:08.885Z,100578.16
2022-07-31T22:38:38.054Z,100583.97
2022-07-31T22:41:09.115Z,100578.41
2022-07-31T22:44:10.984Z,100558.06
2022-07-31T22:46:23.927Z,100554.97
2022-07-31T22:48:52.338Z,100562.81
2022-07-31T22:51:19.444Z,100555.75
2022-07-31T22:53:49.082Z,100547.81
2022-07-31T22:56:17.847Z,100557.69
2022-07-31T22:58:45.063Z,100546.22
2022-07-31T23:01:12.383Z,100547.44
2022-07-31T23:03:39.397Z,100532.94
2022-07-31T23:06:30.942Z,100532.16
2022-07-31T23:08:54.684Z,100533.78
2022-07-31T23:11:23.180Z,100532.22
2022-07-31T23:13:51.320Z,100541.16
2022-07-31T23:16:18.745Z,100530.50
2022-07-31T23:18:46.067Z,100517.28
2022-07-31T23:21:13.195Z,100517.28
2022-07-31T23:23:40.270Z,100507.16
2022-07-31T23:26:07.575Z,100497.47
2022-07-31T23:28:34.712Z,100493.13
2022-07-31T23:31:01.875Z,100490.09
2022-07-31T23:33:28.952Z,100490.09
2022-07-31T23:35:56.233Z,100499.81
2022-07-31T23:38:23.272Z,100491.63
2022-07-31T23:40:51.732Z,100494.03
2022-07-31T23:43:20.994Z,100480.09
2022-07-31T23:45:48.661Z,100490.50
2022-07-31T23:48:16.096Z,100495.25
2022-07-31T23:50:44.461Z,100502.66
2022-07-31T23:53:11.884Z,100498.06
2022-07-31T23:55:39.221Z,100482.13
2022-07-31T23:58:16.205Z,100477.94
